createdAt,value
2023-04-09T00:01:13.801Z,3.55
2023-04-09T00:03:44.212Z,3.27
2023-04-09T00:06:13.948Z,3.47
2023-04-09T00:08:44.161Z,2.60
2023-04-09T00:11:16.127Z,3.05
2023-04-09T00:13:46.650Z,3.22
2023-04-09T00:16:16.225Z,2.90
2023-04-09T00:18:47.260Z,2.85
2023-04-09T00:21:17.828Z,3.20
2023-04-09T00:23:47.750Z,3.20
2023-04-09T00:26:17.862Z,3.37
2023-04-09T00:28:49.156Z,3.53
2023-04-09T00:31:20.735Z,3.10
2023-04-09T00:33:50.266Z,3.70
2023-04-09T00:36:19.775Z,3.70
2023-04-09T00:38:53.860Z,3.65
2023-04-09T00:41:24.313Z,4.20
2023-04-09T00:43:54.227Z,4.83
2023-04-09T00:46:24.140Z,5.90
2023-04-09T00:48:54.143Z,5.00
2023-04-09T00:51:27.034Z,4.87
2023-04-09T00:53:58.185Z,5.08
2023-04-09T00:56:29.584Z,4.62
2023-04-09T00:58:59.314Z,4.30
2023-04-09T01:01:29.628Z,3.65
2023-04-09T01:04:00.301Z,3.55
2023-04-09T01:06:35.918Z,3.57
2023-04-09T01:09:11.809Z,2.80
2023-04-09T01:11:52.160Z,2.75
2023-04-09T01:14:39.693Z,2.55
2023-04-09T01:17:19.899Z,2.45
2023-04-09T01:19:58.635Z,2.62
2023-04-09T01:22:40.338Z,2.87
2023-04-09T01:25:43.176Z,2.40
2023-04-09T01:28:17.511Z,2.20
2023-04-09T01:30:51.187Z,2.60
2023-04-09T01:33:22.160Z,2.45
2023-04-09T01:35:53.361Z,2.85
2023-04-09T01:38:26.947Z,2.90
2023-04-09T01:40:59.130Z,2.85
2023-04-09T01:43:31.077Z,2.52
2023-04-09T01:46:03.717Z,2.90
2023-04-09T01:48:35.791Z,2.77
2023-04-09T01:51:06.650Z,2.60
2023-04-09T01:53:37.293Z,2.75
2023-04-09T01:56:08.165Z,2.87
2023-04-09T01:58:38.351Z,2.37
2023-04-09T02:01:20.420Z,3.25
2023-04-09T02:03:57.018Z,2.60
2023-04-09T02:06:29.685Z,2.70
2023-04-09T02:09:02.257Z,2.45
2023-04-09T02:11:35.975Z,2.52
2023-04-09T02:14:11.454Z,2.33
2023-04-09T02:16:42.981Z,2.80
2023-04-09T02:19:13.500Z,2.67
2023-04-09T02:21:44.647Z,2.80
2023-04-09T02:25:42.011Z,2.90
2023-04-09T02:28:12.127Z,2.22
2023-04-09T02:30:55.314Z,2.52
2023-04-09T02:33:25.087Z,2.65
2023-04-09T02:35:54.605Z,2.55
2023-04-09T02:38:24.709Z,2.92
2023-04-09T02:40:54.428Z,2.33
2023-04-09T02:43:24.349Z,2.77
2023-04-09T02:45:54.525Z,2.37
2023-04-09T02:48:24.161Z,2.50
2023-04-09T02:50:54.283Z,2.67
2023-04-09T02:53:24.195Z,2.55
2023-04-09T02:55:53.739Z,2.80
2023-04-09T02:58:23.410Z,3.20
2023-04-09T03:00:53.540Z,2.77
2023-04-09T03:03:23.159Z,2.80
2023-04-09T03:05:53.192Z,3.02
2023-04-09T03:08:23.480Z,2.65
2023-04-09T03:10:52.979Z,2.80
2023-04-09T03:13:22.488Z,2.58
2023-04-09T03:15:55.512Z,2.50
2023-04-09T03:18:25.396Z,2.57
2023-04-09T03:20:55.100Z,2.33
2023-04-09T03:23:25.425Z,2.62
2023-04-09T03:26:08.650Z,2.40
2023-04-09T03:28:39.998Z,2.77
2023-04-09T03:31:09.942Z,3.15
2023-04-09T03:33:40.526Z,2.80
2023-04-09T03:36:10.601Z,2.72
2023-04-09T03:38:51.301Z,2.35
2023-04-09T03:41:28.969Z,2.72
2023-04-09T03:43:59.976Z,2.55
2023-04-09T03:46:31.361Z,2.40
2023-04-09T03:49:01.853Z,2.33
2023-04-09T03:51:36.814Z,2.65
2023-04-09T03:54:06.795Z,2.55
2023-04-09T03:56:36.898Z,2.87
2023-04-09T03:59:08.264Z,2.52
2023-04-09T04:01:42.577Z,2.60
2023-04-09T04:04:12.476Z,2.52
2023-04-09T04:06:50.083Z,1.92
2023-04-09T04:09:27.169Z,2.30
2023-04-09T04:12:04.440Z,2.40
2023-04-09T04:14:36.186Z,2.77
2023-04-09T04:17:07.557Z,3.30
2023-04-09T04:19:38.707Z,3.00
2023-04-09T04:22:08.411Z,2.50
2023-04-09T04:24:39.349Z,2.52
2023-04-09T04:27:09.884Z,2.50
2023-04-09T04:29:39.647Z,2.70
2023-04-09T04:32:10.938Z,2.40
2023-04-09T04:34:40.440Z,2.33
2023-04-09T04:37:13.224Z,2.40
2023-04-09T04:39:43.756Z,2.67
2023-04-09T04:42:15.590Z,2.83
2023-04-09T04:44:46.277Z,2.50
2023-04-09T04:47:20.473Z,2.37
2023-04-09T04:49:50.786Z,2.42
2023-04-09T04:52:20.903Z,2.45
2023-04-09T04:54:52.251Z,2.67
2023-04-09T04:57:23.462Z,2.30
2023-04-09T04:59:53.515Z,2.72
2023-04-09T05:02:23.345Z,2.60
2023-04-09T05:05:10.337Z,2.65
2023-04-09T05:07:41.640Z,2.60
2023-04-09T05:10:12.023Z,2.58
2023-04-09T05:12:43.160Z,2.10
2023-04-09T05:15:14.501Z,2.60
2023-04-09T05:17:47.104Z,2.42
2023-04-09T05:20:18.022Z,2.55
2023-04-09T05:22:49.368Z,2.58
2023-04-09T05:25:19.374Z,2.25
2023-04-09T05:27:49.197Z,2.40
2023-04-09T05:30:18.909Z,2.42
2023-04-09T05:32:48.837Z,2.60
2023-04-09T05:35:18.936Z,2.47
2023-04-09T05:37:49.264Z,2.47
2023-04-09T05:40:18.844Z,2.58
2023-04-09T05:42:48.788Z,2.42
2023-04-09T05:45:19.982Z,2.62
2023-04-09T05:47:51.808Z,2.30
2023-04-09T05:50:24.786Z,2.75
2023-04-09T05:52:55.862Z,2.67
2023-04-09T05:55:27.205Z,2.58
2023-04-09T05:57:58.399Z,2.87
2023-04-09T06:00:29.235Z,2.33
2023-04-09T06:02:58.779Z,2.87
2023-04-09T06:05:29.631Z,2.83
2023-04-09T06:07:59.086Z,2.58
2023-04-09T06:10:28.627Z,2.55
2023-04-09T06:12:58.483Z,2.70
2023-04-09T06:15:29.023Z,2.37
2023-04-09T06:17:59.470Z,2.30
2023-04-09T06:20:29.888Z,2.62
2023-04-09T06:22:59.372Z,2.42
2023-04-09T06:25:28.931Z,2.58
2023-04-09T06:27:58.507Z,2.77
2023-04-09T06:30:28.048Z,2.33
2023-04-09T06:32:57.632Z,2.55
2023-04-09T06:35:27.112Z,2.67
2023-04-09T06:37:56.588Z,2.45
2023-04-09T06:40:26.271Z,2.40
2023-04-09T06:42:55.958Z,2.05
2023-04-09T06:45:27.717Z,2.23
2023-04-09T06:47:57.549Z,2.65
2023-04-09T06:50:27.096Z,2.22
2023-04-09T06:52:58.154Z,2.05
2023-04-09T06:55:27.704Z,2.00
2023-04-09T06:57:57.295Z,2.00
2023-04-09T07:00:27.310Z,2.03
2023-04-09T07:02:57.140Z,2.42
2023-04-09T07:05:27.334Z,2.58
2023-04-09T07:07:56.797Z,2.37
2023-04-09T07:10:26.297Z,2.25
2023-04-09T07:12:55.962Z,2.37
2023-04-09T07:15:25.518Z,2.30
2023-04-09T07:17:55.049Z,2.15
2023-04-09T07:20:25.270Z,2.35
2023-04-09T07:22:54.748Z,1.90
2023-04-09T07:25:24.308Z,2.30
2023-04-09T07:27:54.198Z,1.77
2023-04-09T07:30:23.767Z,1.97
2023-04-09T07:32:53.372Z,2.17
2023-04-09T07:35:23.154Z,2.02
2023-04-09T07:37:52.613Z,2.05
2023-04-09T07:40:22.101Z,2.05
2023-04-09T07:42:51.708Z,2.15
2023-04-09T07:45:21.315Z,2.02
2023-04-09T07:47:51.320Z,2.05
2023-04-09T07:50:20.973Z,2.27
2023-04-09T07:52:50.446Z,2.22
2023-04-09T07:55:20.718Z,2.45
2023-04-09T07:57:51.705Z,2.20
2023-04-09T08:00:21.515Z,2.27
2023-04-09T08:02:51.892Z,1.90
2023-04-09T08:05:21.696Z,2.27
2023-04-09T08:07:53.422Z,2.37
2023-04-09T08:10:22.895Z,2.57
2023-04-09T08:12:52.568Z,2.20
2023-04-09T08:15:22.367Z,2.27
2023-04-09T08:17:52.654Z,2.47
2023-04-09T08:20:22.340Z,2.05
2023-04-09T08:22:51.787Z,2.12
2023-04-09T08:25:21.540Z,2.10
2023-04-09T08:27:51.005Z,2.27
2023-04-09T08:30:21.564Z,2.15
2023-04-09T08:32:51.080Z,2.10
2023-04-09T08:35:20.675Z,2.10
2023-04-09T08:37:50.572Z,1.80
2023-04-09T08:40:20.247Z,2.20
2023-04-09T08:42:52.684Z,1.90
2023-04-09T08:45:22.524Z,1.98
2023-04-09T08:47:53.289Z,1.90
2023-04-09T08:50:23.142Z,2.70
2023-04-09T08:52:54.288Z,5.75
2023-04-09T08:55:24.034Z,2.33
2023-04-09T08:57:53.596Z,2.02
2023-04-09T09:00:23.217Z,2.25
2023-04-09T09:03:07.353Z,2.67
2023-04-09T09:05:45.822Z,2.47
2023-04-09T09:08:17.704Z,2.33
2023-04-09T09:10:47.767Z,2.40
2023-04-09T09:13:28.591Z,2.15
2023-04-09T09:16:01.205Z,1.72
2023-04-09T09:18:44.998Z,2.20
2023-04-09T09:21:16.594Z,1.90
2023-04-09T09:23:48.503Z,1.70
2023-04-09T09:26:20.688Z,1.57
2023-04-09T09:28:51.540Z,2.43
2023-04-09T09:31:23.464Z,1.50
2023-04-09T09:33:53.932Z,1.42
2023-04-09T09:36:37.172Z,1.42
2023-04-09T09:41:38.466Z,1.90
2023-04-09T09:44:08.964Z,1.55
2023-04-09T09:46:41.458Z,1.80
2023-04-09T09:51:42.216Z,1.55
2023-04-09T09:54:13.155Z,1.50
2023-04-09T09:56:45.010Z,2.20
2023-04-09T09:59:23.392Z,2.08
2023-04-09T10:01:56.161Z,1.87
2023-04-09T10:04:28.293Z,1.30
2023-04-09T10:06:58.969Z,1.73
2023-04-09T10:09:28.757Z,1.50
2023-04-09T10:12:01.139Z,1.50
2023-04-09T10:14:31.037Z,1.20
2023-04-09T10:17:01.405Z,1.32
2023-04-09T10:19:36.324Z,2.30
2023-04-09T10:22:09.200Z,1.75
2023-04-09T10:24:39.127Z,1.30
2023-04-09T10:27:17.342Z,1.47
2023-04-09T10:29:52.927Z,1.00
2023-04-09T10:32:28.849Z,1.10
2023-04-09T10:35:00.814Z,1.27
2023-04-09T10:37:30.815Z,1.37
2023-04-09T10:40:00.998Z,0.85
2023-04-09T10:42:42.230Z,1.30
2023-04-09T10:45:18.322Z,1.10
2023-04-09T10:47:51.984Z,1.67
2023-04-09T10:50:28.260Z,0.70
2023-04-09T10:53:00.444Z,0.95
2023-04-09T10:55:41.106Z,1.10
2023-04-09T10:58:13.539Z,1.00
2023-04-09T11:03:33.342Z,1.52
2023-04-09T11:06:10.265Z,1.07
2023-04-09T11:08:41.884Z,1.10
2023-04-09T11:11:12.414Z,1.00
2023-04-09T11:13:43.342Z,0.85
2023-04-09T11:16:24.781Z,1.07
2023-04-09T11:18:44.805Z,0.93
2023-04-09T11:21:14.253Z,1.20
2023-04-09T11:23:45.455Z,1.60
2023-04-09T11:26:14.963Z,1.10
2023-04-09T11:28:44.871Z,0.80
2023-04-09T11:31:15.040Z,0.90
2023-04-09T11:33:49.126Z,1.07
2023-04-09T11:36:18.770Z,1.00
2023-04-09T11:38:50.997Z,1.20
2023-04-09T11:41:21.414Z,0.90
2023-04-09T11:43:53.171Z,1.07
2023-04-09T11:46:24.759Z,1.17
2023-04-09T11:48:56.883Z,1.20
2023-04-09T11:51:27.481Z,1.00
2023-04-09T11:53:57.128Z,1.00
2023-04-09T11:56:27.660Z,1.25
2023-04-09T11:58:57.373Z,0.95
2023-04-09T12:01:28.715Z,1.05
2023-04-09T12:03:58.798Z,0.90
2023-04-09T12:06:29.980Z,1.17
2023-04-09T12:09:00.482Z,1.07
2023-04-09T12:11:33.498Z,3.47
2023-04-09T12:14:03.632Z,1.50
2023-04-09T12:16:37.449Z,0.90
2023-04-09T12:19:10.872Z,3.17
2023-04-09T12:21:54.774Z,1.20
2023-04-09T12:24:27.379Z,1.30
2023-04-09T12:26:57.428Z,0.90
2023-04-09T12:29:28.975Z,0.90
2023-04-09T12:31:58.969Z,1.02
2023-04-09T12:34:29.159Z,0.80
2023-04-09T12:36:58.734Z,0.80
2023-04-09T12:39:28.206Z,0.90
2023-04-09T12:41:58.090Z,0.70
2023-04-09T12:44:27.839Z,1.00
2023-04-09T12:46:57.327Z,1.05
2023-04-09T12:49:27.000Z,0.85
2023-04-09T12:51:56.510Z,1.00
2023-04-09T12:54:26.353Z,0.93
2023-04-09T12:56:56.159Z,1.00
2023-04-09T12:59:26.303Z,0.62
2023-04-09T13:01:56.497Z,1.00
2023-04-09T13:04:26.353Z,0.90
2023-04-09T13:06:57.083Z,1.00
2023-04-09T13:09:26.561Z,0.60
2023-04-09T13:11:56.087Z,0.80
2023-04-09T13:14:25.935Z,0.90
2023-04-09T13:16:55.424Z,0.82
2023-04-09T13:19:25.353Z,0.90
2023-04-09T13:21:54.858Z,0.72
2023-04-09T13:24:24.403Z,0.80
2023-04-09T13:26:54.319Z,0.98
2023-04-09T13:29:25.713Z,1.00
2023-04-09T13:31:56.154Z,0.90
2023-04-09T13:34:26.771Z,0.98
2023-04-09T13:36:56.795Z,0.75
2023-04-09T13:39:26.511Z,0.60
2023-04-09T13:41:56.739Z,1.00
2023-04-09T13:44:26.956Z,1.00
2023-04-09T13:46:56.869Z,0.90
2023-04-09T13:49:27.603Z,0.75
2023-04-09T13:51:57.924Z,0.95
2023-04-09T13:54:27.838Z,1.17
2023-04-09T13:56:57.355Z,1.22
2023-04-09T13:59:27.261Z,0.70
2023-04-09T14:01:57.259Z,0.95
2023-04-09T14:04:27.314Z,1.00
2023-04-09T14:06:57.893Z,1.00
2023-04-09T14:09:27.735Z,1.00
2023-04-09T14:11:57.650Z,1.22
2023-04-09T14:14:27.768Z,1.10
2023-04-09T14:16:57.294Z,0.85
2023-04-09T14:19:27.205Z,0.90
2023-04-09T14:21:56.897Z,0.80
2023-04-09T14:24:26.812Z,0.75
2023-04-09T14:26:57.136Z,0.88
2023-04-09T14:29:26.852Z,0.85
2023-04-09T14:31:57.265Z,1.10
2023-04-09T14:34:27.910Z,0.90
2023-04-09T14:36:57.466Z,0.90
2023-04-09T14:39:27.531Z,1.10
2023-04-09T14:41:58.261Z,1.00
2023-04-09T14:44:28.381Z,0.98
2023-04-09T14:46:58.792Z,1.12
2023-04-09T14:49:28.621Z,1.12
2023-04-09T14:51:59.560Z,1.00
2023-04-09T14:54:30.704Z,1.00
2023-04-09T14:57:00.441Z,1.17
2023-04-09T14:59:30.766Z,1.15
2023-04-09T15:02:00.329Z,1.10
2023-04-09T15:04:30.539Z,1.12
2023-04-09T15:07:00.362Z,0.85
2023-04-09T15:09:30.192Z,1.10
2023-04-09T15:11:59.697Z,1.00
2023-04-09T15:14:32.081Z,1.10
2023-04-09T15:17:01.581Z,0.80
2023-04-09T15:19:32.922Z,1.00
2023-04-09T15:22:02.642Z,1.00
2023-04-09T15:24:32.341Z,1.10
2023-04-09T15:27:02.055Z,1.07
2023-04-09T15:29:33.205Z,1.02
2023-04-09T15:32:03.018Z,1.00
2023-04-09T15:34:32.814Z,1.00
2023-04-09T15:37:02.376Z,1.00
2023-04-09T15:39:32.580Z,1.10
2023-04-09T15:42:02.719Z,0.90
2023-04-09T15:44:33.912Z,1.00
2023-04-09T15:47:03.828Z,0.90
2023-04-09T15:49:34.964Z,1.07
2023-04-09T15:52:06.328Z,1.10
2023-04-09T15:54:36.167Z,1.10
2023-04-09T15:57:05.740Z,1.05
2023-04-09T15:59:35.504Z,0.93
2023-04-09T16:02:05.189Z,1.00
2023-04-09T16:04:34.913Z,1.00
2023-04-09T16:07:04.574Z,1.12
2023-04-09T16:09:34.283Z,0.83
2023-04-09T16:12:04.412Z,1.02
2023-04-09T16:14:33.996Z,0.95
2023-04-09T16:17:03.596Z,1.05
2023-04-09T16:19:33.339Z,1.30
2023-04-09T16:22:04.280Z,0.88
2023-04-09T16:24:33.818Z,0.90
2023-04-09T16:27:03.444Z,0.85
2023-04-09T16:29:33.003Z,0.90
2023-04-09T16:32:04.009Z,0.93
2023-04-09T16:34:33.634Z,0.93
2023-04-09T16:37:03.770Z,1.00
2023-04-09T16:39:33.266Z,0.93
2023-04-09T16:42:03.169Z,1.07
2023-04-09T16:44:33.302Z,1.00
2023-04-09T16:47:03.001Z,0.72
2023-04-09T16:49:32.729Z,1.05
2023-04-09T16:52:02.418Z,1.00
2023-04-09T16:54:32.541Z,0.90
2023-04-09T16:57:03.475Z,0.70
2023-04-09T16:59:32.980Z,1.00
2023-04-09T17:02:02.792Z,1.62
2023-04-09T17:04:34.411Z,1.20
2023-04-09T17:07:04.424Z,1.23
2023-04-09T17:09:34.280Z,4.67
2023-04-09T17:12:03.819Z,1.92
2023-04-09T17:14:34.731Z,1.80
2023-04-09T17:17:04.699Z,2.47
2023-04-09T17:19:34.753Z,1.85
2023-04-09T17:22:05.079Z,1.45
2023-04-09T17:24:36.649Z,1.45
2023-04-09T17:27:06.543Z,1.40
2023-04-09T17:29:36.469Z,1.40
2023-04-09T17:32:06.928Z,1.40
2023-04-09T17:34:36.698Z,1.40
2023-04-09T17:37:06.412Z,1.20
2023-04-09T17:39:37.141Z,1.67
2023-04-09T17:42:07.822Z,0.93
2023-04-09T17:44:39.023Z,0.90
2023-04-09T17:47:09.759Z,0.93
2023-04-09T17:49:40.085Z,1.40
2023-04-09T17:52:09.586Z,0.90
2023-04-09T17:54:39.709Z,0.82
2023-04-09T17:57:09.822Z,0.82
2023-04-09T17:59:39.462Z,1.17
2023-04-09T18:02:09.580Z,1.15
2023-04-09T18:04:39.866Z,1.00
2023-04-09T18:07:09.683Z,1.10
2023-04-09T18:09:40.644Z,1.05
2023-04-09T18:12:10.535Z,0.82
2023-04-09T18:14:40.046Z,1.10
2023-04-09T18:17:10.093Z,0.70
2023-04-09T18:19:40.078Z,1.20
2023-04-09T18:22:15.584Z,1.20
2023-04-09T18:24:45.436Z,1.15
2023-04-09T18:27:14.938Z,0.80
2023-04-09T18:29:44.450Z,1.22
2023-04-09T18:32:14.359Z,1.30
2023-04-09T18:34:45.296Z,0.90
2023-04-09T18:37:15.791Z,1.45
2023-04-09T18:39:46.984Z,1.35
2023-04-09T18:42:16.694Z,1.30
2023-04-09T18:44:46.596Z,1.75
2023-04-09T18:47:16.726Z,1.30
2023-04-09T18:49:46.628Z,1.40
2023-04-09T18:52:16.214Z,1.40
2023-04-09T18:54:46.051Z,1.20
2023-04-09T18:57:16.086Z,1.52
2023-04-09T18:59:47.518Z,1.82
2023-04-09T19:02:17.111Z,1.57
2023-04-09T19:04:47.519Z,1.40
2023-04-09T19:07:17.261Z,1.60
2023-04-09T19:09:47.177Z,1.82
2023-04-09T19:12:17.502Z,1.67
2023-04-09T19:14:47.422Z,1.80
2023-04-09T19:17:17.206Z,1.90
2023-04-09T19:19:46.839Z,1.65
2023-04-09T19:22:16.955Z,1.85
2023-04-09T19:24:46.664Z,1.77
2023-04-09T19:27:16.571Z,2.00
2023-04-09T19:29:47.320Z,2.10
2023-04-09T19:32:17.026Z,2.30
2023-04-09T19:34:46.944Z,2.00
2023-04-09T19:37:18.285Z,1.82
2023-04-09T19:39:48.403Z,2.67
2023-04-09T19:42:17.873Z,2.40
2023-04-09T19:44:48.710Z,2.60
2023-04-09T19:47:18.600Z,2.80
2023-04-09T19:49:48.266Z,3.02
2023-04-09T19:52:18.381Z,3.77
2023-04-09T19:54:48.289Z,3.52
2023-04-09T19:57:18.206Z,4.10
2023-04-09T19:59:49.782Z,4.12
2023-04-09T20:02:19.197Z,4.00
2023-04-09T20:04:48.982Z,4.87
2023-04-09T20:07:18.491Z,5.08
2023-04-09T20:09:48.804Z,5.00
2023-04-09T20:12:20.153Z,5.40
2023-04-09T20:14:50.493Z,5.85
2023-04-09T20:17:21.420Z,7.95
2023-04-09T20:19:51.547Z,7.85
2023-04-09T20:22:21.045Z,8.10
2023-04-09T20:24:50.809Z,8.63
2023-04-09T20:27:22.667Z,8.85
2023-04-09T20:29:53.043Z,9.20
2023-04-09T20:32:23.011Z,9.18
2023-04-09T20:34:52.663Z,9.30
2023-04-09T20:37:22.374Z,9.63
2023-04-09T20:39:52.503Z,9.13
2023-04-09T20:42:21.998Z,9.00
2023-04-09T20:44:51.909Z,9.58
2023-04-09T20:47:22.519Z,9.40
2023-04-09T20:49:53.379Z,9.53
2023-04-09T20:52:23.915Z,9.45
2023-04-09T20:54:53.463Z,9.43
2023-04-09T20:57:23.710Z,8.80
2023-04-09T20:59:54.056Z,8.65
2023-04-09T21:02:23.843Z,8.83
2023-04-09T21:04:53.906Z,8.40
2023-04-09T21:07:23.596Z,9.20
2023-04-09T21:09:53.509Z,9.68
2023-04-09T21:12:23.013Z,8.83
2023-04-09T21:14:52.724Z,8.98
2023-04-09T21:17:22.464Z,9.30
2023-04-09T21:19:53.372Z,8.48
2023-04-09T21:22:24.324Z,8.05
2023-04-09T21:24:56.894Z,8.60
2023-04-09T21:29:55.909Z,8.08
2023-04-09T21:32:25.697Z,7.95
2023-04-09T21:34:55.627Z,7.80
2023-04-09T21:37:27.304Z,8.23
2023-04-09T21:39:57.205Z,8.05
2023-04-09T21:42:27.747Z,8.13
2023-04-09T21:44:57.433Z,8.35
2023-04-09T21:47:27.783Z,7.78
2023-04-09T21:49:57.891Z,8.03
2023-04-09T21:52:28.210Z,7.58
2023-04-09T21:54:57.926Z,7.78
2023-04-09T21:57:28.044Z,7.15
2023-04-09T21:59:57.553Z,7.10
2023-04-09T22:02:28.052Z,6.92
2023-04-09T22:05:02.621Z,7.08
2023-04-09T22:07:32.418Z,6.03
2023-04-09T22:10:02.529Z,5.90
2023-04-09T22:12:32.444Z,6.40
2023-04-09T22:15:03.381Z,5.67
2023-04-09T22:17:33.110Z,6.58
2023-04-09T22:20:03.787Z,5.50
2023-04-09T22:22:33.740Z,6.50
2023-04-09T22:25:04.175Z,6.15
2023-04-09T22:27:35.211Z,5.80
2023-04-09T22:30:05.130Z,5.70
2023-04-09T22:32:34.883Z,5.70
2023-04-09T22:35:04.751Z,6.08
2023-04-09T22:37:34.248Z,5.60
2023-04-09T22:40:04.572Z,5.58
2023-04-09T22:42:34.287Z,5.57
2023-04-09T22:45:03.992Z,5.85
2023-04-09T22:47:34.354Z,5.58
2023-04-09T22:50:03.824Z,5.83
2023-04-09T22:52:33.540Z,5.75
2023-04-09T22:55:03.447Z,4.90
2023-04-09T22:57:33.359Z,5.20
2023-04-09T23:00:06.358Z,5.33
2023-04-09T23:02:37.186Z,5.80
2023-04-09T23:05:08.122Z,5.33
2023-04-09T23:07:38.134Z,5.37
2023-04-09T23:10:08.936Z,5.47
2023-04-09T23:12:38.578Z,5.12
2023-04-09T23:15:09.143Z,4.78
2023-04-09T23:17:38.818Z,4.72
2023-04-09T23:20:11.485Z,4.90
2023-04-09T23:22:42.125Z,4.75
2023-04-09T23:25:12.247Z,4.90
2023-04-09T23:27:41.952Z,4.58
2023-04-09T23:30:13.772Z,4.63
2023-04-09T23:32:46.418Z,4.58
2023-04-09T23:35:16.846Z,4.45
2023-04-09T23:37:46.492Z,4.78
2023-04-09T23:40:18.129Z,4.40
2023-04-09T23:42:49.108Z,4.50
2023-04-09T23:45:20.984Z,4.50
2023-04-09T23:47:51.578Z,4.62
2023-04-09T23:50:23.269Z,4.25
2023-04-09T23:52:53.593Z,4.58
2023-04-09T23:55:23.306Z,4.37
2023-04-09T23:57:53.013Z,3.55
